sensor_id;sensor_type;location;lat;lon;timestamp;pressure;altitude;pressure_sealevel;temperature;humidity
21182;BME280;10749;46.296;7.524;2023-04-25T00:00:18;94390.00;;;13.61;33.66
21182;BME280;10749;46.296;7.524;2023-04-25T00:02:44;94391.44;;;13.64;33.08
21182;BME280;10749;46.296;7.524;2023-04-25T00:05:09;94385.91;;;13.59;33.42
21182;BME280;10749;46.296;7.524;2023-04-25T00:07:35;94389.63;;;13.58;33.29
21182;BME280;10749;46.296;7.524;2023-04-25T00:10:00;94380.19;;;13.55;33.60
21182;BME280;10749;46.296;7.524;2023-04-25T00:12:26;94391.47;;;13.51;33.62
21182;BME280;10749;46.296;7.524;2023-04-25T00:14:54;94391.91;;;13.41;34.11
21182;BME280;10749;46.296;7.524;2023-04-25T00:17:22;94386.38;;;13.36;34.18
21182;BME280;10749;46.296;7.524;2023-04-25T00:19:49;94378.00;;;13.39;34.37
21182;BME280;10749;46.296;7.524;2023-04-25T00:22:15;94385.53;;;13.42;34.00
21182;BME280;10749;46.296;7.524;2023-04-25T00:24:40;94375.97;;;13.41;34.28
21182;BME280;10749;46.296;7.524;2023-04-25T00:27:06;94380.28;;;13.29;34.80
21182;BME280;10749;46.296;7.524;2023-04-25T00:29:31;94380.28;;;13.29;35.04
21182;BME280;10749;46.296;7.524;2023-04-25T00:31:56;94381.50;;;13.20;35.37
21182;BME280;10749;46.296;7.524;2023-04-25T00:34:22;94373.34;;;13.15;35.79
21182;BME280;10749;46.296;7.524;2023-04-25T00:36:47;94369.44;;;13.24;35.42
21182;BME280;10749;46.296;7.524;2023-04-25T00:39:12;94371.25;;;13.30;34.42
21182;BME280;10749;46.296;7.524;2023-04-25T00:41:38;94368.00;;;13.28;34.42
21182;BME280;10749;46.296;7.524;2023-04-25T00:44:03;94368.81;;;13.28;34.81
21182;BME280;10749;46.296;7.524;2023-04-25T00:46:31;94377.19;;;13.32;34.54
21182;BME280;10749;46.296;7.524;2023-04-25T00:48:56;94368.22;;;13.33;34.37
21182;BME280;10749;46.296;7.524;2023-04-25T00:51:21;94360.22;;;13.33;34.42
21182;BME280;10749;46.296;7.524;2023-04-25T00:53:51;94359.81;;;13.29;34.41
21182;BME280;10749;46.296;7.524;2023-04-25T00:56:16;94356.34;;;13.22;34.63
21182;BME280;10749;46.296;7.524;2023-04-25T00:58:42;94354.13;;;13.13;35.30
21182;BME280;10749;46.296;7.524;2023-04-25T01:01:11;94352.50;;;13.12;35.52
21182;BME280;10749;46.296;7.524;2023-04-25T01:03:38;94345.56;;;13.11;34.99
21182;BME280;10749;46.296;7.524;2023-04-25T01:06:10;94337.78;;;13.16;34.07
21182;BME280;10749;46.296;7.524;2023-04-25T01:08:38;94343.06;;;13.09;33.42
21182;BME280;10749;46.296;7.524;2023-04-25T01:11:03;94343.91;;;13.03;33.16
21182;BME280;10749;46.296;7.524;2023-04-25T01:13:29;94336.97;;;12.95;33.83
21182;BME280;10749;46.296;7.524;2023-04-25T01:15:55;94340.44;;;12.89;34.08
21182;BME280;10749;46.296;7.524;2023-04-25T01:18:20;94326.75;;;12.86;34.11
21182;BME280;10749;46.296;7.524;2023-04-25T01:20:46;94327.56;;;12.86;34.35
21182;BME280;10749;46.296;7.524;2023-04-25T01:23:13;94316.94;;;12.86;34.73
21182;BME280;10749;46.296;7.524;2023-04-25T01:25:39;94321.47;;;12.79;34.91
21182;BME280;10749;46.296;7.524;2023-04-25T01:28:05;94307.75;;;12.82;34.68
21182;BME280;10749;46.296;7.524;2023-04-25T01:30:30;94311.84;;;12.85;34.84
21182;BME280;10749;46.296;7.524;2023-04-25T01:32:57;94301.22;;;12.78;34.65
21182;BME280;10749;46.296;7.524;2023-04-25T01:35:23;94301.84;;;12.74;34.47
21182;BME280;10749;46.296;7.524;2023-04-25T01:37:49;94301.84;;;12.67;34.58
21182;BME280;10749;46.296;7.524;2023-04-25T01:40:15;94302.66;;;12.68;34.28
21182;BME280;10749;46.296;7.524;2023-04-25T01:42:42;94298.38;;;12.67;33.78
21182;BME280;10749;46.296;7.524;2023-04-25T01:45:08;94297.34;;;12.68;34.08
21182;BME280;10749;46.296;7.524;2023-04-25T01:47:34;94290.81;;;12.57;34.43
21182;BME280;10749;46.296;7.524;2023-04-25T01:50:03;94281.44;;;12.55;34.39
21182;BME280;10749;46.296;7.524;2023-04-25T01:52:29;94297.16;;;12.49;34.76
21182;BME280;10749;46.296;7.524;2023-04-25T01:54:55;94295.72;;;12.47;34.58
21182;BME280;10749;46.296;7.524;2023-04-25T01:57:21;94298.19;;;12.42;34.88
21182;BME280;10749;46.296;7.524;2023-04-25T01:59:47;94308.16;;;12.46;35.18
21182;BME280;10749;46.296;7.524;2023-04-25T02:02:12;94303.47;;;12.55;34.35
21182;BME280;10749;46.296;7.524;2023-04-25T02:04:37;94285.09;;;12.47;34.11
21182;BME280;10749;46.296;7.524;2023-04-25T02:07:03;94285.91;;;12.47;33.81
21182;BME280;10749;46.296;7.524;2023-04-25T02:09:28;94282.84;;;12.50;34.02
21182;BME280;10749;46.296;7.524;2023-04-25T02:11:53;94284.28;;;12.46;34.32
21182;BME280;10749;46.296;7.524;2023-04-25T02:14:19;94277.34;;;12.52;33.95
21182;BME280;10749;46.296;7.524;2023-04-25T02:16:44;94273.69;;;12.53;33.42
21182;BME280;10749;46.296;7.524;2023-04-25T02:19:10;94268.97;;;12.55;33.78
21182;BME280;10749;46.296;7.524;2023-04-25T02:21:35;94257.75;;;12.53;33.73
21182;BME280;10749;46.296;7.524;2023-04-25T02:24:01;94251.22;;;12.56;33.78
21182;BME280;10749;46.296;7.524;2023-04-25T02:26:26;94248.78;;;12.54;34.20
21182;BME280;10749;46.296;7.524;2023-04-25T02:28:52;94248.78;;;12.54;34.57
21182;BME280;10749;46.296;7.524;2023-04-25T02:31:17;94249.38;;;12.56;34.41
21182;BME280;10749;46.296;7.524;2023-04-25T02:33:43;94245.91;;;12.56;34.48
21182;BME280;10749;46.296;7.524;2023-04-25T02:36:08;94243.47;;;12.54;34.67
21182;BME280;10749;46.296;7.524;2023-04-25T02:38:33;94248.34;;;12.57;34.95
21182;BME280;10749;46.296;7.524;2023-04-25T02:40:58;94247.50;;;12.63;34.84
21182;BME280;10749;46.296;7.524;2023-04-25T02:43:24;94245.91;;;12.62;35.17
21182;BME280;10749;46.296;7.524;2023-04-25T02:45:49;94256.09;;;12.65;34.97
21182;BME280;10749;46.296;7.524;2023-04-25T02:48:15;94257.31;;;12.69;34.91
21182;BME280;10749;46.296;7.524;2023-04-25T02:50:40;94269.16;;;12.73;34.93
21182;BME280;10749;46.296;7.524;2023-04-25T02:53:05;94255.25;;;12.71;35.30
21182;BME280;10749;46.296;7.524;2023-04-25T02:55:30;94255.72;;;12.62;35.15
21182;BME280;10749;46.296;7.524;2023-04-25T02:57:56;94252.03;;;12.56;35.24
21182;BME280;10749;46.296;7.524;2023-04-25T03:00:21;94242.03;;;12.58;35.33
21182;BME280;10749;46.296;7.524;2023-04-25T03:02:47;94244.69;;;12.58;35.55
21182;BME280;10749;46.296;7.524;2023-04-25T03:05:13;94245.50;;;12.65;35.61
21182;BME280;10749;46.296;7.524;2023-04-25T03:07:38;94251.59;;;12.59;36.04
21182;BME280;10749;46.296;7.524;2023-04-25T03:10:07;94253.03;;;12.55;34.94
21182;BME280;10749;46.296;7.524;2023-04-25T03:12:33;94248.75;;;12.47;35.16
21182;BME280;10749;46.296;7.524;2023-04-25T03:14:58;94261.63;;;12.50;34.89
21182;BME280;10749;46.296;7.524;2023-04-25T03:17:23;94269.59;;;12.44;34.97
21182;BME280;10749;46.296;7.524;2023-04-25T03:19:49;94267.78;;;12.38;33.85
21182;BME280;10749;46.296;7.524;2023-04-25T03:22:14;94267.97;;;12.30;34.33
21182;BME280;10749;46.296;7.524;2023-04-25T03:24:40;94264.69;;;12.28;34.57
21182;BME280;10749;46.296;7.524;2023-04-25T03:27:05;94263.47;;;12.30;35.37
21182;BME280;10749;46.296;7.524;2023-04-25T03:29:30;94260.19;;;12.35;35.82
21182;BME280;10749;46.296;7.524;2023-04-25T03:31:56;94262.66;;;12.43;34.85
21182;BME280;10749;46.296;7.524;2023-04-25T03:34:21;94261.25;;;12.34;34.94
21182;BME280;10749;46.296;7.524;2023-04-25T03:36:47;94256.94;;;12.26;34.73
21182;BME280;10749;46.296;7.524;2023-04-25T03:39:12;94261.84;;;12.23;34.35
21182;BME280;10749;46.296;7.524;2023-04-25T03:41:37;94265.09;;;12.18;34.64
21182;BME280;10749;46.296;7.524;2023-04-25T03:44:03;94270.19;;;12.20;34.56
21182;BME280;10749;46.296;7.524;2023-04-25T03:46:28;94266.34;;;12.09;34.37
21182;BME280;10749;46.296;7.524;2023-04-25T03:48:53;94267.31;;;12.01;35.12
21182;BME280;10749;46.296;7.524;2023-04-25T03:51:19;94261.00;;;11.96;35.01
21182;BME280;10749;46.296;7.524;2023-04-25T03:53:44;94269.97;;;12.01;36.17
21182;BME280;10749;46.296;7.524;2023-04-25T03:56:09;94257.34;;;12.03;37.58
21182;BME280;10749;46.296;7.524;2023-04-25T03:58:35;94259.16;;;12.10;37.35
21182;BME280;10749;46.296;7.524;2023-04-25T04:01:00;94266.31;;;12.16;36.72
21182;BME280;10749;46.296;7.524;2023-04-25T04:03:28;94259.38;;;12.15;36.23
21182;BME280;10749;46.296;7.524;2023-04-25T04:05:53;94258.16;;;12.11;36.34
21182;BME280;10749;46.296;7.524;2023-04-25T04:08:18;94255.69;;;12.02;36.98
21182;BME280;10749;46.296;7.524;2023-04-25T04:10:44;94246.09;;;12.01;37.30
21182;BME280;10749;46.296;7.524;2023-04-25T04:13:09;94243.44;;;12.01;37.47
21182;BME280;10749;46.296;7.524;2023-04-25T04:15:35;94248.75;;;12.01;37.78
21182;BME280;10749;46.296;7.524;2023-04-25T04:18:00;94254.28;;;12.07;37.62
21182;BME280;10749;46.296;7.524;2023-04-25T04:20:28;94248.16;;;12.13;37.55
21182;BME280;10749;46.296;7.524;2023-04-25T04:22:54;94251.22;;;12.10;37.89
21182;BME280;10749;46.296;7.524;2023-04-25T04:25:20;94253.25;;;12.08;37.86
21182;BME280;10749;46.296;7.524;2023-04-25T04:27:45;94255.50;;;12.11;38.25
21182;BME280;10749;46.296;7.524;2023-04-25T04:30:11;94251.22;;;12.10;38.40
21182;BME280;10749;46.296;7.524;2023-04-25T04:32:37;94253.25;;;12.08;36.98
21182;BME280;10749;46.296;7.524;2023-04-25T04:35:03;94252.44;;;12.00;36.11
21182;BME280;10749;46.296;7.524;2023-04-25T04:37:29;94257.31;;;11.90;36.37
21182;BME280;10749;46.296;7.524;2023-04-25T04:39:55;94258.09;;;11.84;36.01
21182;BME280;10749;46.296;7.524;2023-04-25T04:42:20;94272.19;;;11.78;35.71
21182;BME280;10749;46.296;7.524;2023-04-25T04:44:46;94277.63;;;11.70;35.69
21182;BME280;10749;46.296;7.524;2023-04-25T04:47:11;94275.94;;;11.56;37.09
21182;BME280;10749;46.296;7.524;2023-04-25T04:49:37;94280.84;;;11.52;37.12
21182;BME280;10749;46.296;7.524;2023-04-25T04:52:03;94276.94;;;11.42;37.14
21182;BME280;10749;46.296;7.524;2023-04-25T04:54:28;94287.13;;;11.38;37.60
21182;BME280;10749;46.296;7.524;2023-04-25T04:56:53;94289.13;;;11.30;37.77
21182;BME280;10749;46.296;7.524;2023-04-25T04:59:19;94287.25;;;11.24;38.32
21182;BME280;10749;46.296;7.524;2023-04-25T05:01:44;94293.38;;;11.24;40.04
21182;BME280;10749;46.296;7.524;2023-04-25T05:04:11;94295.03;;;11.32;40.64
21182;BME280;10749;46.296;7.524;2023-04-25T05:06:36;94296.25;;;11.36;40.18
21182;BME280;10749;46.296;7.524;2023-04-25T05:09:01;94307.25;;;11.33;40.34
21182;BME280;10749;46.296;7.524;2023-04-25T05:11:27;94309.09;;;11.32;39.32
21182;BME280;10749;46.296;7.524;2023-04-25T05:13:52;94313.72;;;11.24;39.01
21182;BME280;10749;46.296;7.524;2023-04-25T05:16:18;94311.22;;;11.09;40.19
21182;BME280;10749;46.296;7.524;2023-04-25T05:18:43;94318.75;;;11.12;39.13
21182;BME280;10749;46.296;7.524;2023-04-25T05:21:09;94321.81;;;11.09;40.68
21182;BME280;10749;46.296;7.524;2023-04-25T05:23:34;94324.25;;;11.10;41.52
21182;BME280;10749;46.296;7.524;2023-04-25T05:25:59;94325.28;;;11.09;42.19
21182;BME280;10749;46.296;7.524;2023-04-25T05:28:25;94329.53;;;11.10;42.41
21182;BME280;10749;46.296;7.524;2023-04-25T05:30:50;94341.78;;;11.11;43.81
21182;BME280;10749;46.296;7.524;2023-04-25T05:33:16;94333.44;;;11.15;44.45
21182;BME280;10749;46.296;7.524;2023-04-25T05:35:41;94324.25;;;11.10;45.78
21182;BME280;10749;46.296;7.524;2023-04-25T05:38:07;94322.25;;;11.13;45.72
21182;BME280;10749;46.296;7.524;2023-04-25T05:40:32;94334.47;;;11.14;45.98
21182;BME280;10749;46.296;7.524;2023-04-25T05:42:57;94332.84;;;11.13;45.96
21182;BME280;10749;46.296;7.524;2023-04-25T05:45:23;94325.13;;;11.18;44.06
21182;BME280;10749;46.296;7.524;2023-04-25T05:47:48;94329.38;;;11.19;44.63
21182;BME280;10749;46.296;7.524;2023-04-25T05:50:13;94334.47;;;11.14;46.35
21182;BME280;10749;46.296;7.524;2023-04-25T05:52:39;94336.56;;;11.25;46.47
21182;BME280;10749;46.296;7.524;2023-04-25T05:55:05;94331.69;;;11.28;46.22
21182;BME280;10749;46.296;7.524;2023-04-25T05:57:31;94340.22;;;11.24;46.96
21182;BME280;10749;46.296;7.524;2023-04-25T05:59:56;94330.41;;;11.18;47.48
21182;BME280;10749;46.296;7.524;2023-04-25T06:02:21;94332.84;;;11.13;47.54
21182;BME280;10749;46.296;7.524;2023-04-25T06:04:49;94337.19;;;10.92;49.21
21182;BME280;10749;46.296;7.524;2023-04-25T06:07:15;94346.03;;;10.78;49.91
21182;BME280;10749;46.296;7.524;2023-04-25T06:09:40;94339.94;;;10.78;49.75
21182;BME280;10749;46.296;7.524;2023-04-25T06:12:06;94344.06;;;10.59;51.87
21182;BME280;10749;46.296;7.524;2023-04-25T06:14:32;94339.28;;;10.48;51.81
21182;BME280;10749;46.296;7.524;2023-04-25T06:16:57;94349.06;;;10.47;51.99
21182;BME280;10749;46.296;7.524;2023-04-25T06:19:22;94347.72;;;10.58;51.10
21182;BME280;10749;46.296;7.524;2023-04-25T06:21:48;94346.22;;;10.49;51.92
21182;BME280;10749;46.296;7.524;2023-04-25T06:24:13;94339.34;;;10.54;51.54
21182;BME280;10749;46.296;7.524;2023-04-25T06:26:38;94351.00;;;10.60;50.73
21182;BME280;10749;46.296;7.524;2023-04-25T06:29:04;94361.59;;;10.60;50.24
21182;BME280;10749;46.296;7.524;2023-04-25T06:31:29;94358.31;;;10.58;50.45
21182;BME280;10749;46.296;7.524;2023-04-25T06:33:57;94356.09;;;10.40;50.23
21182;BME280;10749;46.296;7.524;2023-04-25T06:36:22;94352.16;;;10.30;51.31
21182;BME280;10749;46.296;7.524;2023-04-25T06:38:51;94359.84;;;10.25;51.17
21182;BME280;10749;46.296;7.524;2023-04-25T06:41:17;94354.13;;;10.21;51.54
21182;BME280;10749;46.296;7.524;2023-04-25T06:43:42;94370.41;;;10.25;51.57
21182;BME280;10749;46.296;7.524;2023-04-25T06:46:08;94376.72;;;10.24;52.05
21182;BME280;10749;46.296;7.524;2023-04-25T06:48:33;94375.53;;;10.26;51.75
21182;BME280;10749;46.296;7.524;2023-04-25T06:50:58;94363.91;;;10.27;52.00
21182;BME280;10749;46.296;7.524;2023-04-25T06:53:23;94361.75;;;10.31;52.23
21182;BME280;10749;46.296;7.524;2023-04-25T06:55:49;94374.19;;;10.37;52.28
21182;BME280;10749;46.296;7.524;2023-04-25T06:58:14;94361.03;;;10.43;52.98
21182;BME280;10749;46.296;7.524;2023-04-25T07:00:40;94361.69;;;10.52;52.39
21182;BME280;10749;46.296;7.524;2023-04-25T07:03:05;94356.88;;;10.55;50.01
21182;BME280;10749;46.296;7.524;2023-04-25T07:05:30;94354.91;;;10.64;51.33
21182;BME280;10749;46.296;7.524;2023-04-25T07:07:56;94346.81;;;10.72;52.08
21182;BME280;10749;46.296;7.524;2023-04-25T07:10:21;94354.69;;;10.93;51.48
21182;BME280;10749;46.296;7.524;2023-04-25T07:12:46;94348.66;;;11.06;51.62
21182;BME280;10749;46.296;7.524;2023-04-25T07:15:12;94355.31;;;10.95;52.19
21182;BME280;10749;46.296;7.524;2023-04-25T07:17:37;94345.34;;;10.97;52.08
21182;BME280;10749;46.296;7.524;2023-04-25T07:20:04;94337.19;;;10.92;51.67
21182;BME280;10749;46.296;7.524;2023-04-25T07:22:29;94335.84;;;10.75;52.35
21182;BME280;10749;46.296;7.524;2023-04-25T07:24:55;94337.25;;;10.71;51.77
21182;BME280;10749;46.296;7.524;2023-04-25T07:27:20;94344.31;;;10.64;52.62
21182;BME280;10749;46.296;7.524;2023-04-25T07:29:45;94336.59;;;10.69;52.72
21182;BME280;10749;46.296;7.524;2023-04-25T07:32:11;94336.97;;;10.94;52.91
21182;BME280;10749;46.296;7.524;2023-04-25T07:34:38;94332.94;;;10.98;53.42
21182;BME280;10749;46.296;7.524;2023-04-25T07:37:04;94338.38;;;11.18;50.94
21182;BME280;10749;46.296;7.524;2023-04-25T07:39:30;94337.34;;;11.19;49.75
21182;BME280;10749;46.296;7.524;2023-04-25T07:41:55;94335.31;;;11.21;49.45
21182;BME280;10749;46.296;7.524;2023-04-25T07:44:22;94324.00;;;11.40;51.42
21182;BME280;10749;46.296;7.524;2023-04-25T07:46:47;94318.78;;;11.59;52.26
21182;BME280;10749;46.296;7.524;2023-04-25T07:49:12;94319.31;;;11.89;52.05
21182;BME280;10749;46.296;7.524;2023-04-25T07:51:38;94328.28;;;11.82;49.49
21182;BME280;10749;46.296;7.524;2023-04-25T07:54:03;94321.31;;;11.74;49.60
21182;BME280;10749;46.296;7.524;2023-04-25T07:56:30;94322.16;;;11.81;50.28
21182;BME280;10749;46.296;7.524;2023-04-25T07:58:55;94315.69;;;12.03;50.89
21182;BME280;10749;46.296;7.524;2023-04-25T08:01:20;94327.13;;;12.11;51.52
21182;BME280;10749;46.296;7.524;2023-04-25T08:03:47;94325.50;;;12.23;51.20
21182;BME280;10749;46.296;7.524;2023-04-25T08:06:12;94325.50;;;12.16;51.31
21182;BME280;10749;46.296;7.524;2023-04-25T08:08:37;94338.44;;;11.72;52.05
21182;BME280;10749;46.296;7.524;2023-04-25T08:11:02;94338.31;;;11.52;51.48
21182;BME280;10749;46.296;7.524;2023-04-25T08:13:28;94343.41;;;11.47;51.01
21182;BME280;10749;46.296;7.524;2023-04-25T08:15:53;94348.25;;;11.37;50.86
21182;BME280;10749;46.296;7.524;2023-04-25T08:18:19;94353.88;;;11.21;49.58
21182;BME280;10749;46.296;7.524;2023-04-25T08:20:45;94349.47;;;11.06;51.02
21182;BME280;10749;46.296;7.524;2023-04-25T08:23:10;94362.88;;;10.98;51.62
21182;BME280;10749;46.296;7.524;2023-04-25T08:25:36;94357.44;;;11.06;52.05
21182;BME280;10749;46.296;7.524;2023-04-25T08:28:01;94357.66;;;11.05;50.94
21182;BME280;10749;46.296;7.524;2023-04-25T08:30:28;94373.47;;;10.98;50.40
21182;BME280;10749;46.296;7.524;2023-04-25T08:32:53;94372.06;;;11.02;51.13
21182;BME280;10749;46.296;7.524;2023-04-25T08:35:19;94374.38;;;11.12;51.94
21182;BME280;10749;46.296;7.524;2023-04-25T08:37:45;94389.47;;;11.18;52.32
21182;BME280;10749;46.296;7.524;2023-04-25T08:40:13;94387.91;;;11.24;52.63
21182;BME280;10749;46.296;7.524;2023-04-25T08:42:41;94398.56;;;11.30;52.14
21182;BME280;10749;46.296;7.524;2023-04-25T08:45:07;94400.41;;;11.36;51.97
21182;BME280;10749;46.296;7.524;2023-04-25T08:47:33;94391.63;;;11.36;51.23
21182;BME280;10749;46.296;7.524;2023-04-25T08:50:00;94397.00;;;11.49;51.75
21182;BME280;10749;46.296;7.524;2023-04-25T08:52:28;94396.50;;;11.67;52.65
21182;BME280;10749;46.296;7.524;2023-04-25T08:54:56;94411.88;;;11.84;52.31
21182;BME280;10749;46.296;7.524;2023-04-25T08:57:22;94407.63;;;11.83;52.76
21182;BME280;10749;46.296;7.524;2023-04-25T08:59:48;94408.88;;;11.87;52.46
21182;BME280;10749;46.296;7.524;2023-04-25T09:02:14;94418.41;;;11.82;52.02
21182;BME280;10749;46.296;7.524;2023-04-25T09:04:43;94427.97;;;11.76;52.54
21182;BME280;10749;46.296;7.524;2023-04-25T09:07:08;94429.06;;;11.88;52.49
21182;BME280;10749;46.296;7.524;2023-04-25T09:09:34;94426.53;;;11.74;52.89
21182;BME280;10749;46.296;7.524;2023-04-25T09:12:00;94439.50;;;11.62;52.52
21182;BME280;10749;46.296;7.524;2023-04-25T09:14:27;94442.31;;;11.54;52.40
21182;BME280;10749;46.296;7.524;2023-04-25T09:19:29;94438.25;;;11.58;52.38
21182;BME280;10749;46.296;7.524;2023-04-25T09:22:00;94438.69;;;11.68;52.70
21182;BME280;10749;46.296;7.524;2023-04-25T09:24:41;94451.22;;;11.81;52.19
21182;BME280;10749;46.296;7.524;2023-04-25T09:27:10;94450.66;;;11.85;52.37
21182;BME280;10749;46.296;7.524;2023-04-25T09:29:37;94452.41;;;12.13;52.70
21182;BME280;10749;46.296;7.524;2023-04-25T09:32:23;94456.13;;;12.25;53.10
21182;BME280;10749;46.296;7.524;2023-04-25T09:34:49;94459.03;;;12.43;52.85
21182;BME280;10749;46.296;7.524;2023-04-25T09:37:23;94440.72;;;12.61;52.01
21182;BME280;10749;46.296;7.524;2023-04-25T09:39:50;94446.66;;;12.83;52.27
21182;BME280;10749;46.296;7.524;2023-04-25T09:42:17;94447.28;;;13.05;51.28
21182;BME280;10749;46.296;7.524;2023-04-25T09:44:46;94446.47;;;12.98;51.73
21182;BME280;10749;46.296;7.524;2023-04-25T09:47:13;94450.56;;;12.93;51.95
21182;BME280;10749;46.296;7.524;2023-04-25T09:49:40;94433.44;;;13.16;50.72
21182;BME280;10749;46.296;7.524;2023-04-25T09:52:08;94434.59;;;13.46;51.28
21182;BME280;10749;46.296;7.524;2023-04-25T09:54:33;94432.97;;;13.65;50.85
21182;BME280;10749;46.296;7.524;2023-04-25T09:57:03;94436.63;;;13.64;50.46
21182;BME280;10749;46.296;7.524;2023-04-25T09:59:34;94433.34;;;13.68;50.36
21182;BME280;10749;46.296;7.524;2023-04-25T10:02:03;94431.34;;;13.51;47.75
21182;BME280;10749;46.296;7.524;2023-04-25T10:04:32;94428.72;;;13.31;47.31
21182;BME280;10749;46.296;7.524;2023-04-25T10:06:59;94431.53;;;13.10;46.63
21182;BME280;10749;46.296;7.524;2023-04-25T10:09:26;94428.91;;;13.03;46.23
21182;BME280;10749;46.296;7.524;2023-04-25T10:11:51;94435.25;;;13.35;47.15
21182;BME280;10749;46.296;7.524;2023-04-25T10:14:18;94437.28;;;13.53;46.92
21182;BME280;10749;46.296;7.524;2023-04-25T10:16:45;94450.72;;;13.77;47.00
21182;BME280;10749;46.296;7.524;2023-04-25T10:19:10;94425.16;;;13.76;45.93
21182;BME280;10749;46.296;7.524;2023-04-25T10:21:46;94414.47;;;13.90;45.37
21182;BME280;10749;46.296;7.524;2023-04-25T10:24:13;94413.38;;;14.10;46.72
21182;BME280;10749;46.296;7.524;2023-04-25T10:26:40;94417.56;;;14.31;46.96
21182;BME280;10749;46.296;7.524;2023-04-25T10:29:05;94416.28;;;14.47;47.04
21182;BME280;10749;46.296;7.524;2023-04-25T10:31:30;94413.06;;;14.38;47.38
21182;BME280;10749;46.296;7.524;2023-04-25T10:33:56;94399.09;;;14.49;47.11
21182;BME280;10749;46.296;7.524;2023-04-25T10:36:23;94406.41;;;14.54;46.65
21182;BME280;10749;46.296;7.524;2023-04-25T10:38:49;94400.09;;;14.79;46.97
21182;BME280;10749;46.296;7.524;2023-04-25T10:41:21;94403.31;;;14.88;46.66
21182;BME280;10749;46.296;7.524;2023-04-25T10:43:48;94402.47;;;14.63;45.88
21182;BME280;10749;46.296;7.524;2023-04-25T10:46:25;94399.75;;;14.38;45.17
21182;BME280;10749;46.296;7.524;2023-04-25T10:48:55;94403.44;;;14.30;45.30
21182;BME280;10749;46.296;7.524;2023-04-25T10:51:34;94403.31;;;14.19;45.07
21182;BME280;10749;46.296;7.524;2023-04-25T10:54:02;94405.97;;;14.19;44.76
21182;BME280;10749;46.296;7.524;2023-04-25T10:56:33;94396.09;;;14.26;45.44
21182;BME280;10749;46.296;7.524;2023-04-25T10:59:15;94405.88;;;14.45;44.81
21182;BME280;10749;46.296;7.524;2023-04-25T11:01:43;94406.19;;;14.55;45.13
21182;BME280;10749;46.296;7.524;2023-04-25T11:04:24;94415.22;;;14.54;45.52
21182;BME280;10749;46.296;7.524;2023-04-25T11:07:04;94418.38;;;14.38;45.22
21182;BME280;10749;46.296;7.524;2023-04-25T11:09:33;94412.31;;;14.18;44.76
21182;BME280;10749;46.296;7.524;2023-04-25T11:11:59;94423.00;;;14.05;44.93
21182;BME280;10749;46.296;7.524;2023-04-25T11:14:26;94434.53;;;13.85;44.21
21182;BME280;10749;46.296;7.524;2023-04-25T11:16:55;94434.91;;;13.96;44.50
21182;BME280;10749;46.296;7.524;2023-04-25T11:19:22;94447.59;;;13.94;44.10
21182;BME280;10749;46.296;7.524;2023-04-25T11:21:47;94441.06;;;13.90;43.46
21182;BME280;10749;46.296;7.524;2023-04-25T11:24:13;94442.47;;;13.99;43.30
21182;BME280;10749;46.296;7.524;2023-04-25T11:26:38;94445.88;;;14.12;43.19
21182;BME280;10749;46.296;7.524;2023-04-25T11:29:03;94439.44;;;14.33;43.15
21182;BME280;10749;46.296;7.524;2023-04-25T11:31:29;94443.19;;;14.70;42.86
21182;BME280;10749;46.296;7.524;2023-04-25T11:33:58;94426.41;;;14.69;41.96
21182;BME280;10749;46.296;7.524;2023-04-25T11:36:24;94437.56;;;14.85;42.05
21182;BME280;10749;46.296;7.524;2023-04-25T11:38:51;94437.25;;;14.99;41.73
21182;BME280;10749;46.296;7.524;2023-04-25T11:41:17;94440.16;;;14.98;41.38
21182;BME280;10749;46.296;7.524;2023-04-25T11:43:43;94436.84;;;15.02;40.97
21182;BME280;10749;46.296;7.524;2023-04-25T11:46:09;94430.84;;;15.07;41.12
21182;BME280;10749;46.296;7.524;2023-04-25T11:48:41;94440.69;;;15.31;41.11
21182;BME280;10749;46.296;7.524;2023-04-25T11:51:07;94436.88;;;15.45;40.77
21182;BME280;10749;46.296;7.524;2023-04-25T11:53:32;94427.59;;;15.54;40.36
21182;BME280;10749;46.296;7.524;2023-04-25T11:55:58;94423.41;;;15.83;40.03
21182;BME280;10749;46.296;7.524;2023-04-25T11:58:23;94433.28;;;16.19;39.84
21182;BME280;10749;46.296;7.524;2023-04-25T12:00:48;94440.38;;;16.07;38.84
21182;BME280;10749;46.296;7.524;2023-04-25T12:03:14;94432.00;;;15.85;37.57
21182;BME280;10749;46.296;7.524;2023-04-25T12:05:39;94447.06;;;15.98;36.96
21182;BME280;10749;46.296;7.524;2023-04-25T12:08:12;94441.56;;;16.11;38.27
21182;BME280;10749;46.296;7.524;2023-04-25T12:10:39;94453.59;;;16.02;36.71
21182;BME280;10749;46.296;7.524;2023-04-25T12:15:44;94443.00;;;15.52;37.95
21182;BME280;10749;46.296;7.524;2023-04-25T12:18:09;94458.81;;;15.72;38.40
21182;BME280;10749;46.296;7.524;2023-04-25T12:20:35;94448.81;;;16.04;37.95
21182;BME280;10749;46.296;7.524;2023-04-25T12:23:05;94430.72;;;16.24;37.75
21182;BME280;10749;46.296;7.524;2023-04-25T12:25:42;94438.88;;;16.47;37.42
21182;BME280;10749;46.296;7.524;2023-04-25T12:28:21;94450.81;;;16.93;37.82
21182;BME280;10749;46.296;7.524;2023-04-25T12:30:59;94444.47;;;16.76;36.98
21182;BME280;10749;46.296;7.524;2023-04-25T12:33:27;94455.63;;;16.73;36.91
21182;BME280;10749;46.296;7.524;2023-04-25T12:35:54;94451.91;;;16.55;36.31
21182;BME280;10749;46.296;7.524;2023-04-25T12:38:29;94456.41;;;16.73;36.88
21182;BME280;10749;46.296;7.524;2023-04-25T12:40:56;94456.19;;;16.56;36.87
21182;BME280;10749;46.296;7.524;2023-04-25T12:43:21;94458.75;;;16.15;36.94
21182;BME280;10749;46.296;7.524;2023-04-25T12:45:48;94466.63;;;15.92;36.32
21182;BME280;10749;46.296;7.524;2023-04-25T12:48:14;94462.16;;;15.67;36.25
21182;BME280;10749;46.296;7.524;2023-04-25T12:50:39;94463.53;;;15.52;36.70
21182;BME280;10749;46.296;7.524;2023-04-25T12:53:04;94456.44;;;15.64;36.97
21182;BME280;10749;46.296;7.524;2023-04-25T12:55:29;94466.28;;;15.63;36.55
21182;BME280;10749;46.296;7.524;2023-04-25T12:57:55;94457.75;;;15.55;36.68
21182;BME280;10749;46.296;7.524;2023-04-25T13:00:20;94451.59;;;15.97;36.78